Terminal Aerodrome Forecast
Issued by NWS Columbia, SC

Home | Current Version | Previous Version | Text Only | Print | Product List | Glossary On
Versions: 1 2 3 4 5 6 7 8 9 10 11 12 13 14 15 16 17 18 19 20 21 22 23 24 25 26 27 28
000
FTUS42 KCAE 230914 AAB
TAFCAE
TAF AMD
KCAE 230914Z 2309/2406 09010KT P6SM -SHRA SCT030 OVC070
     FM231300 10013KT 5SM -RA OVC015 WS015/12045KT
     FM231500 10014G22KT 3SM -RA BR OVC012
      TEMPO 2315/2319 2SM SHRA BKN007
     FM232300 09015G25KT 4SM -RA BR OVC007=

USA.gov is the U.S. government's official web portal to all federal, state and local government web resources and services.